Historique des mesures à Cassis (13260), France
Quotidien Résumé Janvier 29, 2018 Unités:  Métrique    US   Métrique/US
« Précédent (Jour)
Suivant (Jour) »
Quotidien Hebdomadaire Mensuel Annuel Période au choix
  Maximum: Minimum: Moyenne:
Température: TemperatureC °C 7.8 °C 9.6 °C
Point de rosée: DewpointC °C 5.4 °C 6.4 °C
Humidité: Humidity % 72 % 77 %
Vitesse du vent: 0 km/h 0 km/h 2.1 km/h
Rafales: 0 km/h - -
Vent:- - WSW
Pression: PressurehPa hPa 1027.0 hPa -
Précipitations: 0.0 mm    
Historical Graphs
 
 
Mesures pour : Janvier 29, 2018
Heure Temperature Point de rosée Pression Vent Vitesse du vent Rafales Humidité Pluie (par heure) Conditions
TemperatureC °C DewpointC °C PressurehPa hPa Calm     Humidity % HourlyPrecipMM mm SoftwareType W/m2
00:12 8.9 °C 5.9 °C 1030.4 hPa Calm     82 % 0.0 mm open2300-1.11 W/m2
01:12 9.1 °C 6.2 °C 1030.0 hPa Calm   2.3 km/h 82 % 0.0 mm open2300-1.11 W/m2
02:12 8.6 °C 5.8 °C 1030.0 hPa Calm     83 % 0.0 mm open2300-1.11 W/m2
03:12 8.9 °C 5.9 °C 1030.0 hPa Calm   1.8 km/h 82 % 0.0 mm open2300-1.11 W/m2
04:12 8.3 °C 5.6 °C 1029.7 hPa NNW 3.4 km/h 3.4 km/h 83 % 0.0 mm open2300-1.11 W/m2
05:12 8.2 °C 5.8 °C 1029.7 hPa WNW 5.1 km/h 9.3 km/h 85 % 0.0 mm open2300-1.11 W/m2
06:12 8.1 °C 5.9 °C 1030.0 hPa NW 5.1 km/h 5.1 km/h 86 % 0.0 mm open2300-1.11 W/m2
07:12 7.9 °C 5.6 °C 1029.7 hPa Calm   6.4 km/h 85 % 0.0 mm open2300-1.11 W/m2
08:12 7.8 °C 5.4 °C 1030.0 hPa WNW 8 km/h 8 km/h 85 % 0.0 mm open2300-1.11 W/m2
09:12 8.6 °C 6.1 °C 1030.0 hPa WNW 5.6 km/h 9.8 km/h 84 % 0.0 mm open2300-1.11 W/m2
10:12 9.5 °C 6.4 °C 1030.4 hPa Calm   2.9 km/h 81 % 0.0 mm open2300-1.11 W/m2
11:12 11.3 °C 7.8 °C 1030.4 hPa Calm   5.6 km/h 79 % 0.0 mm open2300-1.11 W/m2
12:12 12.8 °C 8.4 °C 1030.0 hPa Calm   4.2 km/h 75 % 0.0 mm open2300-1.11 W/m2
13:12 13.4 °C 8.6 °C 1029.3 hPa Calm   5.1 km/h 73 % 0.0 mm open2300-1.11 W/m2
14:12 13.6 °C 8.6 °C 1028.3 hPa South 5.6 km/h 6.9 km/h 72 % 0.0 mm open2300-1.11 W/m2
15:12 13.4 °C 8.4 °C 1028.0 hPa Calm   4.2 km/h 72 % 0.0 mm open2300-1.11 W/m2
16:12 12.9 °C 8.2 °C 1027.7 hPa SSW 12.2 km/h 12.2 km/h 73 % 0.0 mm open2300-1.11 W/m2
17:12 12.4 °C 8.1 °C 1027.3 hPa Calm     75 % 0.0 mm open2300-1.11 W/m2
18:12 10.8 °C 6.9 °C 1027.3 hPa Calm   5.1 km/h 77 % 0.0 mm open2300-1.11 W/m2
19:12 9.8 °C 6.5 °C 1027.3 hPa Calm   5.1 km/h 80 % 0.0 mm open2300-1.11 W/m2
20:12 9.4 °C 6.3 °C 1027.7 hPa North 2.9 km/h 2.9 km/h 81 % 0.0 mm open2300-1.11 W/m2
21:12 8.6 °C 5.7 °C 1027.3 hPa NNW 3.4 km/h 3.4 km/h 82 % 0.0 mm open2300-1.11 W/m2
22:12 8.8 °C 6.1 °C 1027.3 hPa Calm     83 % 0.0 mm open2300-1.11 W/m2
23:12 8.6 °C 6.1 °C 1027.0 hPa Calm     84 % 0.0 mm open2300-1.11 W/m2
Observations météo à CASSIS
WU-History script by Weather Underground - 1 mb